createdAt,value
2019-05-07T00:00:23.637Z,5.8
2019-05-07T00:01:13.587Z,5.8
2019-05-07T00:02:04.334Z,5.8
2019-05-07T00:02:53.839Z,5.8
2019-05-07T00:03:43.866Z,5.8
2019-05-07T00:04:34.179Z,5.8
2019-05-07T00:05:24.392Z,5.8
2019-05-07T00:06:14.067Z,5.8
2019-05-07T00:07:03.572Z,5.7
2019-05-07T00:07:54.191Z,5.8
2019-05-07T00:08:46.428Z,5.8
2019-05-07T00:09:34.038Z,5.8
2019-05-07T00:10:26.178Z,5.7
2019-05-07T00:11:13.879Z,5.7
2019-05-07T00:12:06.711Z,5.7
2019-05-07T00:12:54.556Z,5.7
2019-05-07T00:13:45.989Z,5.7
2019-05-07T00:14:36.136Z,5.7
2019-05-07T00:15:24.749Z,5.7
2019-05-07T00:16:14.536Z,5.7
2019-05-07T00:17:06.196Z,5.7
2019-05-07T00:17:54.366Z,5.7
2019-05-07T00:18:44.978Z,5.6
2019-05-07T00:19:35.034Z,5.6
2019-05-07T00:20:25.098Z,5.7
2019-05-07T00:21:15.168Z,5.6
2019-05-07T00:22:05.223Z,5.6
2019-05-07T00:22:55.288Z,5.6
2019-05-07T00:23:45.072Z,5.6
2019-05-07T00:24:35.140Z,5.6
2019-05-07T00:25:25.463Z,5.6
2019-05-07T00:26:14.981Z,5.6
2019-05-07T00:27:05.053Z,5.6
2019-05-07T00:27:55.384Z,5.6
2019-05-07T00:28:45.767Z,5.6
2019-05-07T00:29:35.513Z,5.6
2019-05-07T00:30:25.565Z,5.6
2019-05-07T00:31:15.905Z,5.6
2019-05-07T00:32:05.678Z,5.6
2019-05-07T00:32:55.741Z,5.6
2019-05-07T00:33:46.077Z,5.6
2019-05-07T00:34:35.864Z,5.6
2019-05-07T00:35:26.197Z,5.6
2019-05-07T00:36:15.445Z,5.6
2019-05-07T00:37:08.102Z,5.6
2019-05-07T00:37:56.425Z,5.6
2019-05-07T00:38:46.460Z,5.5
2019-05-07T00:39:36.527Z,5.5
2019-05-07T00:40:26.333Z,5.5
2019-05-07T00:41:16.363Z,5.5
2019-05-07T00:42:06.422Z,5.5
2019-05-07T00:42:56.757Z,5.5
2019-05-07T00:43:46.547Z,5.5
2019-05-07T00:44:36.879Z,5.5
2019-05-07T00:45:26.679Z,5.5
2019-05-07T00:46:17.006Z,5.5
2019-05-07T00:47:06.804Z,5.5
2019-05-07T00:47:56.862Z,5.5
2019-05-07T00:48:46.910Z,5.5
2019-05-07T00:49:37.256Z,5.5
2019-05-07T00:50:27.314Z,5.4
2019-05-07T00:51:17.373Z,5.4
2019-05-07T00:52:07.154Z,5.4
2019-05-07T00:52:57.221Z,5.4
2019-05-07T00:53:47.276Z,5.4
2019-05-07T00:54:37.613Z,5.4
2019-05-07T00:55:27.681Z,5.4
2019-05-07T00:56:17.476Z,5.4
2019-05-07T00:57:07.534Z,5.4
2019-05-07T00:57:57.589Z,5.4
2019-05-07T00:58:47.387Z,5.4
2019-05-07T00:59:37.994Z,5.4
2019-05-07T01:00:28.043Z,5.4
2019-05-07T01:01:18.100Z,5.4
2019-05-07T01:02:08.161Z,5.4
2019-05-07T01:02:57.953Z,5.4
2019-05-07T01:03:48.285Z,5.4
2019-05-07T01:04:38.351Z,5.4
2019-05-07T01:05:28.125Z,5.4
2019-05-07T01:06:18.470Z,5.4
2019-05-07T01:07:08.531Z,5.4
2019-05-07T01:07:58.331Z,5.4
2019-05-07T01:08:48.658Z,5.4
2019-05-07T01:09:38.453Z,5.4
2019-05-07T01:10:28.505Z,5.4
2019-05-07T01:11:18.850Z,5.4
2019-05-07T01:12:08.630Z,5.4
2019-05-07T01:13:02.540Z,5.4
2019-05-07T01:13:48.475Z,5.4
2019-05-07T01:14:38.805Z,5.4
2019-05-07T01:15:35.567Z,5.4
2019-05-07T01:16:18.927Z,5.4
2019-05-07T01:17:09.273Z,5.4
2019-05-07T01:17:59.074Z,5.4
2019-05-07T01:18:49.415Z,5.4
2019-05-07T01:19:39.450Z,5.4
2019-05-07T01:20:29.512Z,5.4
2019-05-07T01:21:19.302Z,5.4
2019-05-07T01:22:09.365Z,5.4
2019-05-07T01:22:59.455Z,5.4
2019-05-07T01:23:49.765Z,5.3
2019-05-07T01:24:39.822Z,5.3
2019-05-07T01:25:29.879Z,5.3
2019-05-07T01:26:21.519Z,5.3
2019-05-07T01:27:10.002Z,5.3
2019-05-07T01:27:59.782Z,5.3
2019-05-07T01:28:49.856Z,5.3
2019-05-07T01:29:40.186Z,5.3
2019-05-07T01:30:32.193Z,5.3
2019-05-07T01:31:21.672Z,5.3
2019-05-07T01:32:12.477Z,5.3
2019-05-07T01:33:00.156Z,5.3
2019-05-07T01:33:50.496Z,5.3
2019-05-07T01:34:40.281Z,5.3
2019-05-07T01:35:29.803Z,5.3
2019-05-07T01:36:22.370Z,5.3
2019-05-07T01:37:12.886Z,5.3
2019-05-07T01:38:02.914Z,5.3
2019-05-07T01:38:53.197Z,5.3
2019-05-07T01:39:42.879Z,5.3
2019-05-07T01:40:33.081Z,5.3
2019-05-07T01:41:22.905Z,5.3
2019-05-07T01:42:13.669Z,5.3
2019-05-07T01:43:03.059Z,5.3
2019-05-07T01:43:53.276Z,5.3
2019-05-07T01:44:43.453Z,5.3
2019-05-07T01:45:53.461Z,5.3
2019-05-07T01:47:13.968Z,5.3
2019-05-07T01:48:05.756Z,5.3
2019-05-07T01:48:58.609Z,5.3
2019-05-07T01:49:43.689Z,5.3
2019-05-07T01:50:33.813Z,5.3
2019-05-07T01:51:23.458Z,5.3
2019-05-07T01:52:14.218Z,5.3
2019-05-07T01:53:03.678Z,5.3
2019-05-07T01:53:53.933Z,5.3
2019-05-07T01:54:47.040Z,5.3
2019-05-07T01:55:32.871Z,5.3
2019-05-07T01:56:24.123Z,5.3
2019-05-07T01:57:13.762Z,5.3
2019-05-07T01:58:06.176Z,5.3
2019-05-07T01:58:53.698Z,5.3
2019-05-07T01:59:44.230Z,5.3
2019-05-07T02:00:34.098Z,5.3
2019-05-07T02:01:23.666Z,5.3
2019-05-07T02:02:13.655Z,5.3
2019-05-07T02:03:04.341Z,5.3
2019-05-07T02:03:54.057Z,5.3
2019-05-07T02:04:44.235Z,5.3
2019-05-07T02:05:34.182Z,5.3
2019-05-07T02:06:23.290Z,5.3
2019-05-07T02:07:13.177Z,5.3
2019-05-07T02:08:04.198Z,5.3
2019-05-07T02:08:54.588Z,5.3
2019-05-07T02:09:44.007Z,5.3
2019-05-07T02:10:33.688Z,5.3
2019-05-07T02:11:23.390Z,5.3
2019-05-07T02:12:14.464Z,5.3
2019-05-07T02:13:03.919Z,5.3
2019-05-07T02:13:54.468Z,5.3
2019-05-07T02:14:43.521Z,5.3
2019-05-07T02:15:33.904Z,5.3
2019-05-07T02:16:23.084Z,5.3
2019-05-07T02:17:15.131Z,5.3
2019-05-07T02:18:03.472Z,5.3
2019-05-07T02:18:54.036Z,5.3
2019-05-07T02:19:43.801Z,5.3
2019-05-07T02:20:33.386Z,5.3
2019-05-07T02:21:23.993Z,5.3
2019-05-07T02:22:14.673Z,5.3
2019-05-07T02:23:04.173Z,5.3
2019-05-07T02:23:54.182Z,5.3
2019-05-07T02:24:44.953Z,5.3
2019-05-07T02:25:34.462Z,5.3
2019-05-07T02:26:24.081Z,5.3
2019-05-07T02:27:14.129Z,5.3
2019-05-07T02:28:04.472Z,5.3
2019-05-07T02:28:54.537Z,5.3
2019-05-07T02:29:44.346Z,5.3
2019-05-07T02:30:36.749Z,5.3
2019-05-07T02:31:25.014Z,5.3
2019-05-07T02:32:14.993Z,5.3
2019-05-07T02:33:05.498Z,5.3
2019-05-07T02:33:55.786Z,5.3
2019-05-07T02:34:45.922Z,5.3
2019-05-07T02:35:35.035Z,5.3
2019-05-07T02:36:25.648Z,5.3
2019-05-07T02:37:15.233Z,5.3
2019-05-07T02:38:05.249Z,5.2
2019-05-07T02:38:55.346Z,5.3
2019-05-07T02:39:45.697Z,5.3
2019-05-07T02:40:35.738Z,5.3
2019-05-07T02:41:25.193Z,5.2
2019-05-07T02:42:15.555Z,5.3
2019-05-07T02:43:05.317Z,5.2
2019-05-07T02:43:55.419Z,5.2
2019-05-07T02:44:45.699Z,5.3
2019-05-07T02:45:35.763Z,5.3
2019-05-07T02:46:37.234Z,5.2
2019-05-07T02:48:05.976Z,5.2
2019-05-07T02:48:55.749Z,5.2
2019-05-07T02:49:46.115Z,5.2
2019-05-07T02:50:35.926Z,5.2
2019-05-07T02:51:25.938Z,5.2
2019-05-07T02:52:16.268Z,5.2
2019-05-07T02:53:05.769Z,5.2
2019-05-07T02:53:56.398Z,5.2
2019-05-07T02:54:46.436Z,5.2
2019-05-07T02:55:36.516Z,5.2
2019-05-07T02:56:26.071Z,5.2
2019-05-07T02:57:18.338Z,5.2
2019-05-07T02:58:06.404Z,5.2
2019-05-07T02:58:56.763Z,5.2
2019-05-07T02:59:46.580Z,5.2
2019-05-07T03:00:36.879Z,5.2
2019-05-07T03:01:26.988Z,5.2
2019-05-07T03:02:17.032Z,5.2
2019-05-07T03:03:06.549Z,5.2
2019-05-07T03:06:37.190Z,5.1
2019-05-07T03:07:27.237Z,5.1
2019-05-07T03:08:17.314Z,5.1
2019-05-07T03:09:07.106Z,5.1
2019-05-07T03:09:57.162Z,5.1
2019-05-07T03:10:47.194Z,5.1
2019-05-07T03:11:37.525Z,5.1
2019-05-07T03:12:27.576Z,5.1
2019-05-07T03:13:17.361Z,5.1
2019-05-07T03:14:07.450Z,5.1
2019-05-07T03:14:57.224Z,5.1
2019-05-07T03:15:47.857Z,5.1
2019-05-07T03:16:54.106Z,5.1
2019-05-07T03:18:23.742Z,5.1
2019-05-07T03:19:08.081Z,5.1
2019-05-07T03:19:58.148Z,5.1
2019-05-07T03:20:48.254Z,5.1
2019-05-07T03:21:38.275Z,5.1
2019-05-07T03:22:28.314Z,5.1
2019-05-07T03:23:17.856Z,5.1
2019-05-07T03:24:08.188Z,5.1
2019-05-07T03:24:58.254Z,5.1
2019-05-07T03:25:48.571Z,5.1
2019-05-07T03:26:38.635Z,5.1
2019-05-07T03:27:28.703Z,5.1
2019-05-07T03:28:18.510Z,5.1
2019-05-07T03:29:08.533Z,5.1
2019-05-07T03:29:58.905Z,5.1
2019-05-07T03:30:48.441Z,5.1
2019-05-07T03:31:38.796Z,5.1
2019-05-07T03:32:29.752Z,5.1
2019-05-07T03:33:18.936Z,5.1
2019-05-07T03:34:09.252Z,5.1
2019-05-07T03:35:07.651Z,5.1
2019-05-07T03:35:49.098Z,5.1
2019-05-07T03:36:39.254Z,5.1
2019-05-07T03:37:37.539Z,5.1
2019-05-07T03:38:22.640Z,5.1
2019-05-07T03:39:09.313Z,5.1
2019-05-07T03:39:59.622Z,5.1
2019-05-07T03:40:52.917Z,5.1
2019-05-07T03:41:43.062Z,5.1
2019-05-07T03:42:29.261Z,5.1
2019-05-07T03:43:23.379Z,5.1
2019-05-07T03:44:09.640Z,5.1
2019-05-07T03:45:03.361Z,5.1
2019-05-07T03:45:50.029Z,5.1
2019-05-07T03:47:06.977Z,5.1
2019-05-07T03:48:19.941Z,5.1
2019-05-07T03:49:13.555Z,5.1
2019-05-07T03:50:03.735Z,5.1
2019-05-07T03:50:53.877Z,5.1
2019-05-07T03:51:43.935Z,5.1
2019-05-07T03:52:33.951Z,5.1
2019-05-07T03:53:24.159Z,5.1
2019-05-07T03:54:10.419Z,5.1
2019-05-07T03:55:04.158Z,5.1
2019-05-07T03:55:54.313Z,5.1
2019-05-07T03:56:43.360Z,5.1
2019-05-07T03:57:34.074Z,5.1
2019-05-07T03:58:24.636Z,5.1
2019-05-07T03:59:13.934Z,5.1
2019-05-07T04:00:04.683Z,5.1
2019-05-07T04:00:54.366Z,5.1
2019-05-07T04:01:44.471Z,5.1
2019-05-07T04:02:34.270Z,5.1
2019-05-07T04:03:26.038Z,5.1
2019-05-07T04:04:13.968Z,5.1
2019-05-07T04:05:05.191Z,5.1
2019-05-07T04:05:54.477Z,5.2
2019-05-07T04:06:44.563Z,5.2
2019-05-07T04:07:34.278Z,5.2
2019-05-07T04:08:25.135Z,5.2
2019-05-07T04:09:14.807Z,5.2
2019-05-07T04:10:09.491Z,5.2
2019-05-07T04:11:44.676Z,5.2
2019-05-07T04:12:35.173Z,5.3
2019-05-07T04:13:25.597Z,5.3
2019-05-07T04:14:15.080Z,5.3
2019-05-07T04:15:04.789Z,5.3
2019-05-07T04:15:54.222Z,5.3
2019-05-07T04:16:45.536Z,5.3
2019-05-07T04:17:35.231Z,5.3
2019-05-07T04:18:24.895Z,5.3
2019-05-07T04:19:14.840Z,5.3
2019-05-07T04:20:05.898Z,5.3
2019-05-07T04:20:55.671Z,5.3
2019-05-07T04:21:45.061Z,5.4
2019-05-07T04:22:36.024Z,5.4
2019-05-07T04:23:24.860Z,5.4
2019-05-07T04:24:15.120Z,5.4
2019-05-07T04:25:05.796Z,5.4
2019-05-07T04:25:54.599Z,5.4
2019-05-07T04:26:43.975Z,5.4
2019-05-07T04:27:34.819Z,5.4
2019-05-07T04:28:24.912Z,5.4
2019-05-07T04:29:14.778Z,5.4
2019-05-07T04:30:05.400Z,5.4
2019-05-07T04:30:54.610Z,5.4
2019-05-07T04:31:45.354Z,5.5
2019-05-07T04:32:35.017Z,5.5
2019-05-07T04:33:25.224Z,5.5
2019-05-07T04:34:14.754Z,5.6
2019-05-07T04:35:05.630Z,5.6
2019-05-07T04:35:55.289Z,5.6
2019-05-07T04:36:44.776Z,5.6
2019-05-07T04:37:34.462Z,5.6
2019-05-07T04:38:25.381Z,5.6
2019-05-07T04:39:14.633Z,5.6
2019-05-07T04:40:04.900Z,5.6
2019-05-07T04:40:55.024Z,5.6
2019-05-07T04:41:44.844Z,5.6
2019-05-07T04:42:35.007Z,5.6
2019-05-07T04:43:24.916Z,5.7
2019-05-07T04:44:15.709Z,5.7
2019-05-07T04:45:05.846Z,5.8
2019-05-07T04:45:54.741Z,5.8
2019-05-07T04:46:49.496Z,5.8
2019-05-07T04:47:48.769Z,5.8
2019-05-07T04:49:14.395Z,5.9
2019-05-07T04:50:05.204Z,5.9
2019-05-07T04:50:55.766Z,6
2019-05-07T04:51:45.075Z,6.1
2019-05-07T04:52:35.424Z,6.1
2019-05-07T04:53:25.411Z,6.2
2019-05-07T04:54:15.031Z,6.3
2019-05-07T04:55:05.860Z,6.3
2019-05-07T04:55:55.068Z,6.4
2019-05-07T04:56:45.488Z,6.5
2019-05-07T04:57:34.997Z,6.6
2019-05-07T04:58:27.911Z,6.6
2019-05-07T04:59:15.130Z,6.7
2019-05-07T05:00:05.471Z,6.8
2019-05-07T05:00:54.968Z,6.9
2019-05-07T05:01:45.298Z,6.9
2019-05-07T05:02:35.638Z,7
2019-05-07T05:03:25.890Z,7.1
2019-05-07T05:04:35.177Z,7.3
2019-05-07T05:05:55.966Z,7.4
2019-05-07T05:06:45.934Z,7.6
2019-05-07T05:07:36.015Z,7.7
2019-05-07T05:08:25.781Z,7.9
2019-05-07T05:09:16.348Z,8
2019-05-07T05:10:06.221Z,8.1
2019-05-07T05:10:56.297Z,8.3
2019-05-07T05:11:46.315Z,8.4
2019-05-07T05:12:36.362Z,8.5
2019-05-07T05:13:26.157Z,8.7
2019-05-07T05:14:15.923Z,8.8
2019-05-07T05:15:06.534Z,9
2019-05-07T05:15:56.325Z,9.2
2019-05-07T05:16:46.651Z,9.3
2019-05-07T05:17:54.866Z,9.4
2019-05-07T05:19:16.823Z,9.5
2019-05-07T05:20:06.886Z,9.6
2019-05-07T05:20:56.396Z,9.6
2019-05-07T05:21:46.755Z,9.6
2019-05-07T05:22:37.079Z,9.6
2019-05-07T05:23:27.131Z,9.6
2019-05-07T05:24:16.918Z,9.7
2019-05-07T05:25:06.981Z,9.7
2019-05-07T05:25:57.038Z,9.8
2019-05-07T05:26:47.372Z,9.8
2019-05-07T05:27:37.433Z,9.8
2019-05-07T05:28:27.494Z,9.9
2019-05-07T05:29:17.563Z,9.9
2019-05-07T05:30:07.624Z,10
2019-05-07T05:30:57.675Z,10.1
2019-05-07T05:31:47.473Z,10.1
2019-05-07T05:32:37.798Z,10.2
2019-05-07T05:33:27.305Z,10.3
2019-05-07T05:34:17.920Z,10.4
2019-05-07T05:35:07.981Z,10.6
2019-05-07T05:35:57.765Z,10.7
2019-05-07T05:36:48.098Z,10.9
2019-05-07T05:37:38.172Z,11.1
2019-05-07T05:38:27.974Z,11.3
2019-05-07T05:39:18.007Z,11.4
2019-05-07T05:40:12.487Z,11.6
2019-05-07T05:40:58.410Z,11.8
2019-05-07T05:41:48.485Z,11.9
2019-05-07T05:42:38.527Z,12
2019-05-07T05:43:28.597Z,12.1
2019-05-07T05:44:18.647Z,12.2
2019-05-07T05:45:08.987Z,12.2
2019-05-07T05:45:58.803Z,12.3
2019-05-07T05:46:48.844Z,12.3
2019-05-07T05:47:41.883Z,12.3
2019-05-07T05:49:19.025Z,12.3
2019-05-07T05:50:09.090Z,12.3
2019-05-07T05:50:59.155Z,12.3
2019-05-07T05:51:48.929Z,12.3
2019-05-07T05:52:38.999Z,12.3
2019-05-07T05:53:29.336Z,12.3
2019-05-07T05:54:19.101Z,12.3
2019-05-07T05:55:09.454Z,12.3
2019-05-07T05:55:59.506Z,12.2
2019-05-07T05:56:51.746Z,12.2
2019-05-07T05:57:39.622Z,12.1
2019-05-07T05:58:29.692Z,12.1
2019-05-07T05:59:55.192Z,12.1
2019-05-07T06:01:02.330Z,12.1
2019-05-07T06:01:52.574Z,12
2019-05-07T06:02:39.998Z,12
2019-05-07T06:04:36.772Z,11.9
2019-05-07T06:05:27.100Z,11.9
2019-05-07T06:06:16.864Z,11.9
2019-05-07T06:07:15.653Z,11.9
2019-05-07T06:07:57.007Z,11.9
2019-05-07T06:08:47.342Z,11.9
2019-05-07T06:09:37.112Z,11.9
2019-05-07T06:10:27.182Z,11.9
2019-05-07T06:11:17.244Z,12
2019-05-07T06:12:07.296Z,12
2019-05-07T06:12:57.634Z,12.1
2019-05-07T06:13:47.689Z,12.1
2019-05-07T06:14:37.492Z,12.1
2019-05-07T06:15:27.539Z,12.2
2019-05-07T06:16:17.634Z,12.3
2019-05-07T06:17:07.942Z,12.3
2019-05-07T06:17:58.014Z,12.4
2019-05-07T06:18:47.777Z,12.6
2019-05-07T06:20:28.197Z,12.9
2019-05-07T06:21:17.988Z,12.9
2019-05-07T06:22:08.297Z,13.1
2019-05-07T06:22:58.362Z,13.3
2019-05-07T06:23:48.428Z,13.4
2019-05-07T06:24:38.204Z,13.6
2019-05-07T06:25:28.580Z,13.8
2019-05-07T06:26:18.609Z,13.9
2019-05-07T06:27:08.661Z,14.1
2019-05-07T06:27:58.730Z,14.3
2019-05-07T06:28:48.519Z,14.4
2019-05-07T06:29:38.846Z,14.5
2019-05-07T06:30:28.374Z,14.7
2019-05-07T06:31:18.964Z,14.8
2019-05-07T06:32:09.047Z,15
2019-05-07T06:33:49.144Z,15.4
2019-05-07T06:34:45.279Z,15.5
2019-05-07T06:35:28.980Z,15.7
2019-05-07T06:36:19.329Z,15.9
2019-05-07T06:37:11.637Z,16.1
2019-05-07T06:37:59.448Z,16.3
2019-05-07T06:38:49.241Z,16.4
2019-05-07T06:39:39.586Z,16.6
2019-05-07T06:42:59.821Z,17.2
2019-05-07T06:43:49.331Z,17.4
2019-05-07T06:44:39.926Z,17.4
2019-05-07T06:45:35.304Z,17.6
2019-05-07T06:46:19.790Z,17.8
2019-05-07T06:47:09.833Z,17.8
2019-05-07T06:48:00.189Z,17.9
2019-05-07T06:48:52.505Z,18.1
2019-05-07T06:49:40.292Z,18.3
2019-05-07T06:50:32.454Z,18.3
2019-05-07T06:51:22.696Z,18.4
2019-05-07T06:52:12.533Z,18.6
2019-05-07T06:53:52.849Z,18.8
2019-05-07T06:55:32.984Z,18.9
2019-05-07T06:56:22.814Z,18.9
2019-05-07T06:57:13.480Z,19
2019-05-07T06:58:03.048Z,19.1
2019-05-07T06:58:53.078Z,19.1
2019-05-07T06:59:42.826Z,19.2
2019-05-07T07:00:33.360Z,19.3
2019-05-07T07:01:23.780Z,19.4
2019-05-07T07:02:13.255Z,19.5
2019-05-07T07:04:36.742Z,19.8
2019-05-07T07:05:27.504Z,19.9
2019-05-07T07:06:17.119Z,20.1
2019-05-07T07:07:06.887Z,20.3
2019-05-07T07:07:56.965Z,20.4
2019-05-07T07:08:47.292Z,20.7
2019-05-07T07:09:37.342Z,20.9
2019-05-07T07:11:17.465Z,21.3
2019-05-07T07:12:07.530Z,21.6
2019-05-07T07:12:57.314Z,21.8
2019-05-07T07:13:47.651Z,21.9
2019-05-07T07:14:37.508Z,22.1
2019-05-07T07:15:27.772Z,22.3
2019-05-07T07:16:17.572Z,22.4
2019-05-07T07:17:07.909Z,22.4
2019-05-07T07:17:57.412Z,22.5
2019-05-07T07:18:56.636Z,22.5
2019-05-07T07:19:38.147Z,22.6
2019-05-07T07:20:28.142Z,22.6
2019-05-07T07:21:17.931Z,22.5
2019-05-07T07:22:08.258Z,22.5
2019-05-07T07:22:58.361Z,22.4
2019-05-07T07:23:48.111Z,22.4
2019-05-07T07:24:38.167Z,22.3
2019-05-07T07:25:27.943Z,22.3
2019-05-07T07:26:18.299Z,22.2
2019-05-07T07:27:08.619Z,22.1
2019-05-07T07:27:58.694Z,22.1
2019-05-07T07:28:48.744Z,21.9
2019-05-07T07:29:38.798Z,21.8
2019-05-07T07:30:28.586Z,21.7
2019-05-07T07:31:18.653Z,21.6
2019-05-07T07:32:08.988Z,21.6
2019-05-07T07:32:58.781Z,21.4
2019-05-07T07:33:49.091Z,21.4
2019-05-07T07:34:38.908Z,21.3
2019-05-07T07:35:29.229Z,21.2
2019-05-07T07:37:16.814Z,21.1
2019-05-07T07:37:59.408Z,20.9
2019-05-07T07:38:48.938Z,20.9
2019-05-07T07:39:39.536Z,20.9
2019-05-07T07:40:29.598Z,20.8
2019-05-07T07:41:19.396Z,20.8
2019-05-07T07:42:09.711Z,20.8
2019-05-07T07:42:59.781Z,20.8
2019-05-07T07:43:49.833Z,20.7
2019-05-07T07:44:39.890Z,20.7
2019-05-07T07:45:29.675Z,20.6
2019-05-07T07:46:21.909Z,20.6
2019-05-07T07:47:10.080Z,20.5
2019-05-07T07:48:01.984Z,20.4
2019-05-07T07:49:15.454Z,20.4
2019-05-07T07:50:29.508Z,20.3
2019-05-07T07:51:45.763Z,20.3
2019-05-07T07:53:03.008Z,20.2
2019-05-07T07:53:52.987Z,20.1
2019-05-07T07:54:43.302Z,20.1
2019-05-07T07:55:30.402Z,20.1
2019-05-07T07:56:22.782Z,20.1
2019-05-07T07:57:13.067Z,20.1
2019-05-07T07:58:03.117Z,20.1
2019-05-07T07:58:52.933Z,20.1
2019-05-07T07:59:43.109Z,20.1
2019-05-07T08:00:34.129Z,20.1
2019-05-07T08:01:23.032Z,20.1
2019-05-07T08:02:13.392Z,20.1
2019-05-07T08:03:03.669Z,20.1
2019-05-07T08:03:53.422Z,20.1
2019-05-07T08:04:43.563Z,20
2019-05-07T08:05:33.487Z,19.9
2019-05-07T08:06:23.615Z,19.9
2019-05-07T08:07:13.827Z,19.8
2019-05-07T08:08:03.810Z,19.8
2019-05-07T08:08:53.821Z,19.7
2019-05-07T08:09:44.219Z,19.7
2019-05-07T08:10:33.680Z,19.6
2019-05-07T08:11:23.221Z,19.5
2019-05-07T08:12:13.569Z,19.5
2019-05-07T08:13:03.616Z,19.4
2019-05-07T08:13:54.319Z,19.4
2019-05-07T08:14:44.322Z,19.3
2019-05-07T08:15:34.251Z,19.3
2019-05-07T08:16:23.806Z,19.2
2019-05-07T08:17:14.403Z,19.1
2019-05-07T08:18:04.098Z,19.1
2019-05-07T08:18:53.457Z,19
2019-05-07T08:19:44.493Z,18.9
2019-05-07T08:20:34.203Z,18.9
2019-05-07T08:21:24.325Z,18.8
2019-05-07T08:22:13.338Z,18.8
2019-05-07T08:24:43.940Z,18.6
2019-05-07T08:25:33.614Z,18.6
2019-05-07T08:26:23.219Z,18.6
2019-05-07T08:27:16.553Z,18.5
2019-05-07T08:28:04.432Z,18.4
2019-05-07T08:28:53.941Z,18.4
2019-05-07T08:29:44.541Z,18.3
2019-05-07T08:30:34.195Z,18.3
2019-05-07T08:31:24.112Z,18.2
2019-05-07T08:32:14.127Z,18.2
2019-05-07T08:33:03.472Z,18.2
2019-05-07T08:33:53.197Z,18.2
2019-05-07T08:34:44.346Z,18.3
2019-05-07T08:35:34.195Z,18.3
2019-05-07T08:36:23.925Z,18.4
2019-05-07T08:37:13.697Z,18.5
2019-05-07T08:38:03.844Z,18.6
2019-05-07T08:39:44.446Z,18.8
2019-05-07T08:40:34.164Z,18.9
2019-05-07T08:41:23.862Z,18.9
2019-05-07T08:42:14.079Z,19
2019-05-07T08:43:04.522Z,19.2
2019-05-07T08:44:15.630Z,19.3
2019-05-07T08:45:34.174Z,19.6
2019-05-07T08:46:24.369Z,19.8
2019-05-07T08:47:14.614Z,20
2019-05-07T08:48:04.519Z,20.1
2019-05-07T08:48:54.553Z,20.3
2019-05-07T08:49:45.077Z,20.4
2019-05-07T08:50:34.409Z,20.4
2019-05-07T08:51:24.471Z,20.4
2019-05-07T08:52:14.528Z,20.4
2019-05-07T08:53:04.885Z,20.4
2019-05-07T08:53:54.901Z,20.4
2019-05-07T08:54:44.970Z,20.3
2019-05-07T08:55:35.080Z,20.3
2019-05-07T08:56:24.533Z,20.3
2019-05-07T08:57:15.173Z,20.2
2019-05-07T08:58:04.668Z,20.1
2019-05-07T08:58:55.293Z,20.1
2019-05-07T09:00:05.167Z,20.1
2019-05-07T09:01:25.170Z,19.9
2019-05-07T09:02:15.255Z,19.9
2019-05-07T09:03:05.020Z,19.9
2019-05-07T09:04:45.414Z,19.8
2019-05-07T09:05:35.745Z,19.9
2019-05-07T09:06:25.818Z,19.9
2019-05-07T09:07:15.600Z,19.9
2019-05-07T09:08:05.944Z,19.9
2019-05-07T09:08:55.172Z,20
2019-05-07T09:09:45.794Z,20.1
2019-05-07T09:10:36.115Z,20.2
2019-05-07T09:11:25.932Z,20.4
2019-05-07T09:12:15.719Z,20.5
2019-05-07T09:13:06.300Z,20.8
2019-05-07T09:13:56.375Z,20.9
2019-05-07T09:15:36.507Z,21.3
2019-05-07T09:16:26.581Z,21.5
2019-05-07T09:17:16.050Z,21.6
2019-05-07T09:18:06.656Z,21.8
2019-05-07T09:18:56.736Z,21.8
2019-05-07T09:19:55.751Z,21.9
2019-05-07T09:20:36.854Z,22
2019-05-07T09:21:26.904Z,22
2019-05-07T09:22:16.696Z,22
2019-05-07T09:23:07.028Z,22
2019-05-07T09:23:56.534Z,21.9
2019-05-07T09:24:47.145Z,21.9
2019-05-07T09:25:36.921Z,21.8
2019-05-07T09:26:27.261Z,21.8
2019-05-07T09:27:17.058Z,21.6
2019-05-07T09:28:07.388Z,21.6
2019-05-07T09:28:57.168Z,21.4
2019-05-07T09:29:47.223Z,21.3
2019-05-07T09:30:37.566Z,21.3
2019-05-07T09:32:17.693Z,21.1
2019-05-07T09:33:07.741Z,20.9
2019-05-07T09:33:57.807Z,20.9
2019-05-07T09:34:47.578Z,20.8
2019-05-07T09:35:43.368Z,20.7
2019-05-07T09:36:27.978Z,20.6
2019-05-07T09:37:17.775Z,20.6
2019-05-07T09:38:07.823Z,20.5
2019-05-07T09:39:03.280Z,20.4
2019-05-07T09:39:47.934Z,20.4
2019-05-07T09:40:37.995Z,20.4
2019-05-07T09:41:28.073Z,20.3
2019-05-07T09:42:18.398Z,20.3
2019-05-07T09:43:08.463Z,20.3
2019-05-07T09:43:58.519Z,20.3
2019-05-07T09:44:48.029Z,20.3
2019-05-07T09:45:38.633Z,20.3
2019-05-07T09:46:28.710Z,20.3
2019-05-07T09:47:18.759Z,20.2
2019-05-07T09:48:08.827Z,20.2
2019-05-07T09:48:58.637Z,20.2
2019-05-07T09:50:11.667Z,20.2
2019-05-07T09:51:29.069Z,20.1
2019-05-07T09:52:19.112Z,20.1
2019-05-07T09:53:09.170Z,20.1
2019-05-07T09:53:58.972Z,20.1
2019-05-07T09:54:49.293Z,20.1
2019-05-07T09:55:39.357Z,20.1
2019-05-07T09:56:29.164Z,20.1
2019-05-07T09:57:35.449Z,20.2
2019-05-07T09:58:59.594Z,20.4
2019-05-07T09:59:49.679Z,20.6
2019-05-07T10:00:39.446Z,20.7
2019-05-07T10:01:31.410Z,20.8
2019-05-07T10:02:19.297Z,20.9
2019-05-07T10:05:36.854Z,21.4
2019-05-07T10:06:26.634Z,21.6
2019-05-07T10:08:56.796Z,21.8
2019-05-07T10:09:47.143Z,21.8
2019-05-07T10:10:37.201Z,21.9
2019-05-07T10:11:26.991Z,22
2019-05-07T10:12:17.311Z,22.1
2019-05-07T10:13:07.371Z,22.1
2019-05-07T10:13:57.441Z,22.2
2019-05-07T10:14:47.493Z,22.3
2019-05-07T10:15:37.029Z,22.4
2019-05-07T10:16:42.083Z,22.6
2019-05-07T12:06:26.544Z,16.9
2019-05-07T12:07:16.600Z,16.8
2019-05-07T12:08:06.929Z,16.8
2019-05-07T12:08:56.986Z,16.7
2019-05-07T12:09:47.048Z,16.6
2019-05-07T12:10:36.829Z,16.5
2019-05-07T12:11:27.164Z,16.4
2019-05-07T12:12:16.959Z,16.3
2019-05-07T12:13:07.308Z,16.3
2019-05-07T12:13:58.878Z,16.2
2019-05-07T12:14:47.394Z,16.1
2019-05-07T12:15:37.479Z,16
2019-05-07T12:16:27.534Z,15.9
2019-05-07T12:17:17.599Z,15.9
2019-05-07T12:18:07.372Z,15.8
2019-05-07T12:18:57.714Z,15.7
2019-05-07T12:19:47.761Z,15.6
2019-05-07T12:20:37.556Z,15.5
2019-05-07T12:21:27.873Z,15.4
2019-05-07T12:22:17.952Z,15.4
2019-05-07T12:23:07.731Z,15.3
2019-05-07T12:23:57.509Z,15.3
2019-05-07T12:24:48.126Z,15.1
2019-05-07T12:25:38.181Z,15.1
2019-05-07T12:26:27.963Z,15
2019-05-07T12:27:18.306Z,14.9
2019-05-07T12:28:08.385Z,14.9
2019-05-07T12:28:58.423Z,14.8
2019-05-07T12:29:48.492Z,14.7
2019-05-07T12:30:38.545Z,14.6
2019-05-07T12:31:28.357Z,14.6
2019-05-07T12:32:18.671Z,14.5
2019-05-07T12:33:08.783Z,14.4
2019-05-07T12:33:58.510Z,14.4
2019-05-07T12:34:48.841Z,14.3
2019-05-07T12:35:38.623Z,14.3
2019-05-07T12:36:28.950Z,14.2
2019-05-07T12:37:19.027Z,14.1
2019-05-07T12:38:09.101Z,14
2019-05-07T12:38:59.147Z,13.9
2019-05-07T12:39:48.932Z,13.9
2019-05-07T12:40:39.005Z,13.8
2019-05-07T12:41:29.325Z,13.8
2019-05-07T12:42:19.407Z,13.7
2019-05-07T12:43:11.995Z,13.6
2019-05-07T12:43:59.523Z,13.6
2019-05-07T12:44:49.309Z,13.5
2019-05-07T12:45:39.384Z,13.4
2019-05-07T12:46:29.412Z,13.4
2019-05-07T12:47:19.468Z,13.3
2019-05-07T12:48:15.187Z,13.3
2019-05-07T12:48:59.921Z,13.2
2019-05-07T12:49:49.375Z,13.1
2019-05-07T12:50:39.719Z,13.1
2019-05-07T12:51:38.737Z,13.1
2019-05-07T12:52:19.819Z,13
2019-05-07T12:53:09.905Z,12.9
2019-05-07T12:53:59.949Z,12.9
2019-05-07T12:54:52.330Z,12.9
2019-05-07T12:55:42.718Z,12.8
2019-05-07T12:56:32.529Z,12.8
2019-05-07T12:57:22.436Z,12.7
2019-05-07T12:58:12.463Z,12.6
2019-05-07T12:59:02.609Z,12.6
2019-05-07T12:59:52.810Z,12.6
2019-05-07T13:00:42.939Z,12.5
2019-05-07T13:01:32.381Z,12.4
2019-05-07T13:02:44.911Z,12.4
2019-05-07T13:04:03.126Z,12.3
2019-05-07T13:04:53.138Z,12.3
2019-05-07T13:05:43.186Z,12.3
2019-05-07T13:06:33.565Z,12.2
2019-05-07T13:07:23.481Z,12.2
2019-05-07T13:08:13.246Z,12.1
2019-05-07T13:09:01.301Z,12.1
2019-05-07T13:09:53.147Z,12.1
2019-05-07T13:10:43.838Z,12
2019-05-07T13:11:34.010Z,11.9
2019-05-07T13:12:22.691Z,11.9
2019-05-07T13:13:13.521Z,11.9
2019-05-07T13:14:03.309Z,11.9
2019-05-07T13:14:53.305Z,11.8
2019-05-07T13:15:44.800Z,11.8
2019-05-07T13:16:33.555Z,11.7
2019-05-07T13:17:23.657Z,11.7
2019-05-07T13:18:14.110Z,11.7
2019-05-07T13:19:03.455Z,11.6
2019-05-07T13:19:54.073Z,11.6
2019-05-07T13:20:42.162Z,11.6
2019-05-07T13:21:50.638Z,11.4
2019-05-07T13:23:12.906Z,11.4
2019-05-07T13:24:04.273Z,11.4
2019-05-07T13:24:54.482Z,11.4
2019-05-07T13:25:44.452Z,11.3
2019-05-07T13:26:33.775Z,11.3
2019-05-07T13:27:22.342Z,11.3
2019-05-07T13:28:13.375Z,11.3
2019-05-07T13:29:04.081Z,11.2
2019-05-07T13:29:54.682Z,11.2
2019-05-07T13:30:45.197Z,11.1
2019-05-07T13:31:34.227Z,11.1
2019-05-07T13:32:23.920Z,11.1
2019-05-07T13:33:13.827Z,11.1
2019-05-07T13:34:04.177Z,11
2019-05-07T13:34:53.535Z,11
2019-05-07T13:35:45.420Z,11
2019-05-07T13:36:33.649Z,10.9
2019-05-07T13:37:23.491Z,10.9
2019-05-07T13:38:16.152Z,10.9
2019-05-07T13:39:03.967Z,10.9
2019-05-07T13:39:53.311Z,10.9
2019-05-07T13:40:43.869Z,10.9
2019-05-07T13:41:33.409Z,10.8
2019-05-07T13:42:23.702Z,10.8
2019-05-07T13:43:13.489Z,10.8
2019-05-07T13:44:04.491Z,10.8
2019-05-07T13:44:53.882Z,10.8